Beverly Hills, Texas
Current Conditions -  °F | °C
As of 1:51 AM on Friday 31 Oct 2014 (Local Time) from KACT Reporting Station
Clear Clear  
Wind Chill: 62°   Ceiling: Unl
Heat Index: 62°   Visibility: 10mi
Dew Point: 58°   Wind: 7mph
Humidity: 86%   Direction: 340°NNW
Pressure: 30.16"   Gusts: NA
Location:  31.5144°N, 97.156°W
Report Text: KACT 310651Z 34006KT 10SM CLR 17/14 A3016 RMK AO2 SLP210 T01670144
Loading
Personal Weather Stations






























Interactive Weather Map
Tropical Storm Tracking
New forecast layout! Learn more

10-Day Weather Forecast

Advertisements
Track Severe Weather on mobile